Weather at Fort Lauderdale Hollywood International Airport

Public forecast

Using degrees Fahrenheit for public forecast. Weather courtesy of forecast.io.

Current aviation weather report (METAR) for Fort Lauderdale Hollywood International Airport

Retrieved 2021/10/19 20:53 UTC (1 hour ago):

KFLL 192053Z AUTO 05012KT 10SM CLR 28/21 A3006 RMK AO2 SLP179 T02780211 55008

Aviation forecast (TAF) for Fort Lauderdale Hollywood International Airport

Retrieved 2021/10/19 18:27 UTC (3 hours ago):

TAF KFLL 191720Z 1918/2024 08013G20KT P6SM FEW040 SCT050 FM200000 08010KT P6SM FEW035 SCT050 FM201500 09013KT P6SM SCT025 BKN040